sensor_id;sensor_type;location;lat;lon;timestamp;P1;durP1;ratioP1;P2;durP2;ratioP2
7162;SDS011;3623;47.098;15.446;2022-10-29T00:00:50;6.75;;;6.15;;
7162;SDS011;3623;47.098;15.446;2022-10-29T00:03:18;6.63;;;6.00;;
7162;SDS011;3623;47.098;15.446;2022-10-29T00:05:53;6.22;;;5.72;;
7162;SDS011;3623;47.098;15.446;2022-10-29T00:08:23;8.48;;;5.82;;
7162;SDS011;3623;47.098;15.446;2022-10-29T00:10:50;7.97;;;5.97;;
7162;SDS011;3623;47.098;15.446;2022-10-29T00:13:17;9.73;;;7.35;;
7162;SDS011;3623;47.098;15.446;2022-10-29T00:15:45;17.83;;;6.40;;
7162;SDS011;3623;47.098;15.446;2022-10-29T00:18:12;10.70;;;6.53;;
7162;SDS011;3623;47.098;15.446;2022-10-29T00:20:39;6.88;;;6.20;;
7162;SDS011;3623;47.098;15.446;2022-10-29T00:23:07;8.70;;;6.05;;
7162;SDS011;3623;47.098;15.446;2022-10-29T00:25:34;8.18;;;5.95;;
7162;SDS011;3623;47.098;15.446;2022-10-29T00:28:02;9.10;;;6.40;;
7162;SDS011;3623;47.098;15.446;2022-10-29T00:30:29;9.75;;;6.05;;
7162;SDS011;3623;47.098;15.446;2022-10-29T00:32:56;8.85;;;7.00;;
7162;SDS011;3623;47.098;15.446;2022-10-29T00:35:23;6.65;;;5.78;;
7162;SDS011;3623;47.098;15.446;2022-10-29T00:37:50;8.05;;;6.47;;
7162;SDS011;3623;47.098;15.446;2022-10-29T00:40:19;8.13;;;6.38;;
7162;SDS011;3623;47.098;15.446;2022-10-29T00:42:46;9.50;;;6.35;;
7162;SDS011;3623;47.098;15.446;2022-10-29T00:45:16;8.10;;;6.55;;
7162;SDS011;3623;47.098;15.446;2022-10-29T00:47:47;13.25;;;6.45;;
7162;SDS011;3623;47.098;15.446;2022-10-29T00:50:17;10.32;;;6.70;;
7162;SDS011;3623;47.098;15.446;2022-10-29T00:52:48;8.05;;;6.70;;
7162;SDS011;3623;47.098;15.446;2022-10-29T00:55:17;6.95;;;6.28;;
7162;SDS011;3623;47.098;15.446;2022-10-29T00:57:48;8.02;;;7.22;;
7162;SDS011;3623;47.098;15.446;2022-10-29T01:00:18;9.95;;;7.22;;
7162;SDS011;3623;47.098;15.446;2022-10-29T01:02:46;8.55;;;6.35;;
7162;SDS011;3623;47.098;15.446;2022-10-29T01:05:14;12.25;;;7.28;;
7162;SDS011;3623;47.098;15.446;2022-10-29T01:07:44;6.40;;;5.78;;
7162;SDS011;3623;47.098;15.446;2022-10-29T01:10:11;7.03;;;6.32;;
7162;SDS011;3623;47.098;15.446;2022-10-29T01:12:50;8.55;;;5.97;;
7162;SDS011;3623;47.098;15.446;2022-10-29T01:15:29;7.70;;;6.18;;
7162;SDS011;3623;47.098;15.446;2022-10-29T01:18:04;6.75;;;6.00;;
7162;SDS011;3623;47.098;15.446;2022-10-29T01:26:49;9.95;;;6.22;;
7162;SDS011;3623;47.098;15.446;2022-10-29T01:29:38;10.50;;;6.25;;
7162;SDS011;3623;47.098;15.446;2022-10-29T01:32:22;8.75;;;6.47;;
7162;SDS011;3623;47.098;15.446;2022-10-29T01:34:56;11.73;;;6.03;;
7162;SDS011;3623;47.098;15.446;2022-10-29T01:37:30;10.45;;;6.75;;
7162;SDS011;3623;47.098;15.446;2022-10-29T01:40:02;10.88;;;7.30;;
7162;SDS011;3623;47.098;15.446;2022-10-29T01:42:34;6.80;;;6.10;;
7162;SDS011;3623;47.098;15.446;2022-10-29T01:45:07;6.50;;;5.90;;
7162;SDS011;3623;47.098;15.446;2022-10-29T01:47:41;7.72;;;6.80;;
7162;SDS011;3623;47.098;15.446;2022-10-29T01:50:14;7.50;;;6.32;;
7162;SDS011;3623;47.098;15.446;2022-10-29T01:52:46;10.68;;;7.18;;
7162;SDS011;3623;47.098;15.446;2022-10-29T01:55:15;7.03;;;6.32;;
7162;SDS011;3623;47.098;15.446;2022-10-29T01:57:42;7.70;;;6.90;;
7162;SDS011;3623;47.098;15.446;2022-10-29T02:00:10;9.13;;;6.75;;
7162;SDS011;3623;47.098;15.446;2022-10-29T02:05:32;8.88;;;6.55;;
7162;SDS011;3623;47.098;15.446;2022-10-29T02:08:08;16.52;;;6.82;;
7162;SDS011;3623;47.098;15.446;2022-10-29T02:10:46;7.30;;;6.60;;
7162;SDS011;3623;47.098;15.446;2022-10-29T02:13:16;8.43;;;7.13;;
7162;SDS011;3623;47.098;15.446;2022-10-29T02:15:48;7.78;;;5.70;;
7162;SDS011;3623;47.098;15.446;2022-10-29T02:18:19;9.05;;;6.07;;
7162;SDS011;3623;47.098;15.446;2022-10-29T02:20:47;8.80;;;6.60;;
7162;SDS011;3623;47.098;15.446;2022-10-29T02:23:15;10.30;;;6.50;;
7162;SDS011;3623;47.098;15.446;2022-10-29T02:25:42;8.30;;;6.38;;
7162;SDS011;3623;47.098;15.446;2022-10-29T02:28:10;9.75;;;6.93;;
7162;SDS011;3623;47.098;15.446;2022-10-29T02:30:37;7.53;;;6.18;;
7162;SDS011;3623;47.098;15.446;2022-10-29T02:33:04;7.82;;;6.88;;
7162;SDS011;3623;47.098;15.446;2022-10-29T02:35:32;8.80;;;5.93;;
7162;SDS011;3623;47.098;15.446;2022-10-29T02:38:00;10.98;;;6.72;;
7162;SDS011;3623;47.098;15.446;2022-10-29T02:40:27;11.70;;;7.00;;
7162;SDS011;3623;47.098;15.446;2022-10-29T02:42:54;7.65;;;6.85;;
7162;SDS011;3623;47.098;15.446;2022-10-29T02:45:21;11.93;;;7.70;;
7162;SDS011;3623;47.098;15.446;2022-10-29T02:47:48;7.32;;;6.63;;
7162;SDS011;3623;47.098;15.446;2022-10-29T02:50:15;8.73;;;7.30;;
7162;SDS011;3623;47.098;15.446;2022-10-29T02:52:43;10.15;;;7.45;;
7162;SDS011;3623;47.098;15.446;2022-10-29T02:55:10;8.57;;;7.75;;
7162;SDS011;3623;47.098;15.446;2022-10-29T02:57:37;10.65;;;7.80;;
7162;SDS011;3623;47.098;15.446;2022-10-29T03:00:05;7.80;;;6.97;;
7162;SDS011;3623;47.098;15.446;2022-10-29T03:02:32;11.60;;;7.15;;
7162;SDS011;3623;47.098;15.446;2022-10-29T03:04:59;10.07;;;7.43;;
7162;SDS011;3623;47.098;15.446;2022-10-29T03:07:26;10.43;;;7.07;;
7162;SDS011;3623;47.098;15.446;2022-10-29T03:09:55;10.68;;;7.68;;
7162;SDS011;3623;47.098;15.446;2022-10-29T03:12:22;9.38;;;7.70;;
7162;SDS011;3623;47.098;15.446;2022-10-29T03:14:49;11.10;;;8.50;;
7162;SDS011;3623;47.098;15.446;2022-10-29T03:17:16;10.65;;;6.40;;
7162;SDS011;3623;47.098;15.446;2022-10-29T03:19:43;13.25;;;7.20;;
7162;SDS011;3623;47.098;15.446;2022-10-29T03:22:10;9.93;;;8.45;;
7162;SDS011;3623;47.098;15.446;2022-10-29T03:24:37;9.93;;;7.82;;
7162;SDS011;3623;47.098;15.446;2022-10-29T03:27:05;9.63;;;8.05;;
7162;SDS011;3623;47.098;15.446;2022-10-29T03:29:32;12.82;;;7.57;;
7162;SDS011;3623;47.098;15.446;2022-10-29T03:31:59;11.90;;;7.55;;
7162;SDS011;3623;47.098;15.446;2022-10-29T03:34:26;15.15;;;8.15;;
7162;SDS011;3623;47.098;15.446;2022-10-29T03:36:53;8.95;;;6.97;;
7162;SDS011;3623;47.098;15.446;2022-10-29T03:39:20;8.18;;;6.63;;
7162;SDS011;3623;47.098;15.446;2022-10-29T03:41:47;9.63;;;7.97;;
7162;SDS011;3623;47.098;15.446;2022-10-29T03:44:16;8.90;;;7.20;;
7162;SDS011;3623;47.098;15.446;2022-10-29T03:46:45;8.90;;;8.00;;
7162;SDS011;3623;47.098;15.446;2022-10-29T03:49:12;8.82;;;7.00;;
7162;SDS011;3623;47.098;15.446;2022-10-29T03:51:39;10.05;;;7.35;;
7162;SDS011;3623;47.098;15.446;2022-10-29T03:54:06;10.63;;;7.25;;
7162;SDS011;3623;47.098;15.446;2022-10-29T03:56:33;8.80;;;6.93;;
7162;SDS011;3623;47.098;15.446;2022-10-29T03:59:00;8.70;;;7.05;;
7162;SDS011;3623;47.098;15.446;2022-10-29T04:01:29;7.88;;;6.90;;
7162;SDS011;3623;47.098;15.446;2022-10-29T04:03:56;11.18;;;7.65;;
7162;SDS011;3623;47.098;15.446;2022-10-29T04:06:23;12.55;;;7.30;;
7162;SDS011;3623;47.098;15.446;2022-10-29T04:08:50;16.48;;;8.02;;
7162;SDS011;3623;47.098;15.446;2022-10-29T04:11:17;6.85;;;6.20;;
7162;SDS011;3623;47.098;15.446;2022-10-29T04:13:44;7.93;;;6.22;;
7162;SDS011;3623;47.098;15.446;2022-10-29T04:16:11;10.15;;;6.75;;
7162;SDS011;3623;47.098;15.446;2022-10-29T04:18:39;10.38;;;7.55;;
7162;SDS011;3623;47.098;15.446;2022-10-29T04:21:06;7.25;;;6.57;;
7162;SDS011;3623;47.098;15.446;2022-10-29T04:23:33;7.72;;;7.07;;
7162;SDS011;3623;47.098;15.446;2022-10-29T04:26:00;8.23;;;7.40;;
7162;SDS011;3623;47.098;15.446;2022-10-29T04:28:27;10.95;;;7.35;;
7162;SDS011;3623;47.098;15.446;2022-10-29T04:30:55;9.25;;;7.43;;
7162;SDS011;3623;47.098;15.446;2022-10-29T04:33:22;8.95;;;7.80;;
7162;SDS011;3623;47.098;15.446;2022-10-29T04:35:53;8.38;;;7.20;;
7162;SDS011;3623;47.098;15.446;2022-10-29T04:38:20;14.30;;;9.45;;
7162;SDS011;3623;47.098;15.446;2022-10-29T04:40:48;9.35;;;8.43;;
7162;SDS011;3623;47.098;15.446;2022-10-29T04:43:15;11.10;;;8.98;;
7162;SDS011;3623;47.098;15.446;2022-10-29T04:45:42;9.10;;;8.13;;
7162;SDS011;3623;47.098;15.446;2022-10-29T04:48:09;10.23;;;9.15;;
7162;SDS011;3623;47.098;15.446;2022-10-29T04:50:36;11.10;;;9.82;;
7162;SDS011;3623;47.098;15.446;2022-10-29T04:53:05;10.30;;;9.25;;
7162;SDS011;3623;47.098;15.446;2022-10-29T04:55:34;9.65;;;8.60;;
7162;SDS011;3623;47.098;15.446;2022-10-29T04:58:03;14.57;;;8.07;;
7162;SDS011;3623;47.098;15.446;2022-10-29T05:00:30;10.73;;;8.60;;
7162;SDS011;3623;47.098;15.446;2022-10-29T05:02:57;8.88;;;7.90;;
7162;SDS011;3623;47.098;15.446;2022-10-29T05:05:25;12.77;;;8.05;;
7162;SDS011;3623;47.098;15.446;2022-10-29T05:07:55;9.45;;;8.45;;
7162;SDS011;3623;47.098;15.446;2022-10-29T05:10:25;10.63;;;8.57;;
7162;SDS011;3623;47.098;15.446;2022-10-29T05:12:55;19.80;;;8.70;;
7162;SDS011;3623;47.098;15.446;2022-10-29T05:15:23;8.27;;;6.68;;
7162;SDS011;3623;47.098;15.446;2022-10-29T05:17:50;10.50;;;7.53;;
7162;SDS011;3623;47.098;15.446;2022-10-29T05:20:17;10.48;;;9.15;;
7162;SDS011;3623;47.098;15.446;2022-10-29T05:22:44;7.90;;;7.20;;
7162;SDS011;3623;47.098;15.446;2022-10-29T05:25:11;9.77;;;7.30;;
7162;SDS011;3623;47.098;15.446;2022-10-29T05:27:40;16.58;;;8.73;;
7162;SDS011;3623;47.098;15.446;2022-10-29T05:30:07;9.63;;;7.90;;
7162;SDS011;3623;47.098;15.446;2022-10-29T05:32:35;7.95;;;7.15;;
7162;SDS011;3623;47.098;15.446;2022-10-29T05:35:02;9.57;;;7.00;;
7162;SDS011;3623;47.098;15.446;2022-10-29T05:37:29;9.27;;;7.55;;
7162;SDS011;3623;47.098;15.446;2022-10-29T05:39:56;9.00;;;7.20;;
7162;SDS011;3623;47.098;15.446;2022-10-29T05:42:23;13.18;;;8.25;;
7162;SDS011;3623;47.098;15.446;2022-10-29T05:44:52;9.60;;;7.40;;
7162;SDS011;3623;47.098;15.446;2022-10-29T05:47:19;9.23;;;6.95;;
7162;SDS011;3623;47.098;15.446;2022-10-29T05:49:46;8.07;;;7.28;;
7162;SDS011;3623;47.098;15.446;2022-10-29T05:52:13;12.70;;;7.13;;
7162;SDS011;3623;47.098;15.446;2022-10-29T05:54:40;8.07;;;7.07;;
7162;SDS011;3623;47.098;15.446;2022-10-29T05:57:07;10.60;;;8.00;;
7162;SDS011;3623;47.098;15.446;2022-10-29T05:59:34;9.75;;;7.20;;
7162;SDS011;3623;47.098;15.446;2022-10-29T06:02:02;11.85;;;7.88;;
7162;SDS011;3623;47.098;15.446;2022-10-29T06:04:29;11.05;;;6.80;;
7162;SDS011;3623;47.098;15.446;2022-10-29T06:06:56;10.32;;;7.15;;
7162;SDS011;3623;47.098;15.446;2022-10-29T06:09:23;8.75;;;7.70;;
7162;SDS011;3623;47.098;15.446;2022-10-29T06:11:50;15.60;;;8.32;;
7162;SDS011;3623;47.098;15.446;2022-10-29T06:14:17;8.65;;;6.15;;
7162;SDS011;3623;47.098;15.446;2022-10-29T06:16:44;7.65;;;6.95;;
7162;SDS011;3623;47.098;15.446;2022-10-29T06:19:13;7.82;;;6.13;;
7162;SDS011;3623;47.098;15.446;2022-10-29T06:21:40;10.73;;;7.20;;
7162;SDS011;3623;47.098;15.446;2022-10-29T06:24:07;11.52;;;6.90;;
7162;SDS011;3623;47.098;15.446;2022-10-29T06:26:34;12.80;;;7.80;;
7162;SDS011;3623;47.098;15.446;2022-10-29T06:29:02;10.45;;;7.03;;
7162;SDS011;3623;47.098;15.446;2022-10-29T06:31:29;8.55;;;6.35;;
7162;SDS011;3623;47.098;15.446;2022-10-29T06:33:56;8.45;;;6.72;;
7162;SDS011;3623;47.098;15.446;2022-10-29T06:36:24;6.53;;;5.93;;
7162;SDS011;3623;47.098;15.446;2022-10-29T06:38:51;9.48;;;6.20;;
7162;SDS011;3623;47.098;15.446;2022-10-29T06:41:18;7.25;;;6.47;;
7162;SDS011;3623;47.098;15.446;2022-10-29T06:43:49;7.82;;;7.00;;
7162;SDS011;3623;47.098;15.446;2022-10-29T06:46:16;9.15;;;7.35;;
7162;SDS011;3623;47.098;15.446;2022-10-29T06:48:43;7.05;;;6.35;;
7162;SDS011;3623;47.098;15.446;2022-10-29T06:51:11;10.52;;;5.97;;
7162;SDS011;3623;47.098;15.446;2022-10-29T06:53:39;8.55;;;6.57;;
7162;SDS011;3623;47.098;15.446;2022-10-29T06:56:06;9.82;;;6.35;;
7162;SDS011;3623;47.098;15.446;2022-10-29T06:58:33;12.45;;;7.85;;
7162;SDS011;3623;47.098;15.446;2022-10-29T07:01:00;6.28;;;5.78;;
7162;SDS011;3623;47.098;15.446;2022-10-29T07:03:27;6.88;;;5.55;;
7162;SDS011;3623;47.098;15.446;2022-10-29T07:05:54;6.47;;;5.88;;
7162;SDS011;3623;47.098;15.446;2022-10-29T07:08:22;8.48;;;5.03;;
7162;SDS011;3623;47.098;15.446;2022-10-29T07:10:51;6.53;;;5.47;;
7162;SDS011;3623;47.098;15.446;2022-10-29T07:13:19;7.90;;;6.10;;
7162;SDS011;3623;47.098;15.446;2022-10-29T07:15:46;9.02;;;6.00;;
7162;SDS011;3623;47.098;15.446;2022-10-29T07:18:13;7.38;;;5.93;;
7162;SDS011;3623;47.098;15.446;2022-10-29T07:20:41;8.40;;;7.00;;
7162;SDS011;3623;47.098;15.446;2022-10-29T07:23:10;9.68;;;7.53;;
7162;SDS011;3623;47.098;15.446;2022-10-29T07:25:38;15.25;;;7.68;;
7162;SDS011;3623;47.098;15.446;2022-10-29T07:28:08;8.43;;;7.70;;
7162;SDS011;3623;47.098;15.446;2022-10-29T07:30:37;9.95;;;5.53;;
7162;SDS011;3623;47.098;15.446;2022-10-29T07:33:05;9.18;;;7.05;;
7162;SDS011;3623;47.098;15.446;2022-10-29T07:35:32;9.57;;;7.07;;
7162;SDS011;3623;47.098;15.446;2022-10-29T07:37:59;8.57;;;6.82;;
7162;SDS011;3623;47.098;15.446;2022-10-29T07:40:27;10.25;;;7.32;;
7162;SDS011;3623;47.098;15.446;2022-10-29T07:42:54;7.32;;;6.25;;
7162;SDS011;3623;47.098;15.446;2022-10-29T07:45:23;9.15;;;6.78;;
7162;SDS011;3623;47.098;15.446;2022-10-29T07:47:56;7.00;;;5.80;;
7162;SDS011;3623;47.098;15.446;2022-10-29T07:50:25;6.80;;;6.20;;
7162;SDS011;3623;47.098;15.446;2022-10-29T07:52:53;9.02;;;7.50;;
7162;SDS011;3623;47.098;15.446;2022-10-29T07:55:20;12.55;;;6.78;;
7162;SDS011;3623;47.098;15.446;2022-10-29T07:57:47;6.78;;;5.72;;
7162;SDS011;3623;47.098;15.446;2022-10-29T08:00:24;7.40;;;6.70;;
7162;SDS011;3623;47.098;15.446;2022-10-29T08:02:52;6.82;;;5.18;;
7162;SDS011;3623;47.098;15.446;2022-10-29T08:05:19;7.18;;;6.47;;
7162;SDS011;3623;47.098;15.446;2022-10-29T08:07:46;6.93;;;6.22;;
7162;SDS011;3623;47.098;15.446;2022-10-29T08:10:13;10.10;;;5.93;;
7162;SDS011;3623;47.098;15.446;2022-10-29T08:12:46;9.15;;;6.75;;
7162;SDS011;3623;47.098;15.446;2022-10-29T08:15:15;7.23;;;6.53;;
7162;SDS011;3623;47.098;15.446;2022-10-29T08:17:43;9.30;;;5.87;;
7162;SDS011;3623;47.098;15.446;2022-10-29T08:20:11;6.73;;;6.13;;
7162;SDS011;3623;47.098;15.446;2022-10-29T08:22:39;9.83;;;5.57;;
7162;SDS011;3623;47.098;15.446;2022-10-29T08:25:06;7.00;;;6.30;;
7162;SDS011;3623;47.098;15.446;2022-10-29T08:27:34;8.37;;;7.40;;
7162;SDS011;3623;47.098;15.446;2022-10-29T08:30:01;10.17;;;8.10;;
7162;SDS011;3623;47.098;15.446;2022-10-29T08:32:28;10.60;;;7.67;;
7162;SDS011;3623;47.098;15.446;2022-10-29T08:34:56;16.23;;;7.70;;
7162;SDS011;3623;47.098;15.446;2022-10-29T08:37:23;8.87;;;7.10;;
7162;SDS011;3623;47.098;15.446;2022-10-29T08:39:50;9.10;;;7.10;;
7162;SDS011;3623;47.098;15.446;2022-10-29T08:42:20;7.23;;;6.53;;
7162;SDS011;3623;47.098;15.446;2022-10-29T08:45:02;7.73;;;6.93;;
7162;SDS011;3623;47.098;15.446;2022-10-29T08:47:41;8.40;;;7.50;;
7162;SDS011;3623;47.098;15.446;2022-10-29T08:50:16;5.77;;;5.27;;
7162;SDS011;3623;47.098;15.446;2022-10-29T08:52:49;9.73;;;6.77;;
7162;SDS011;3623;47.098;15.446;2022-10-29T08:55:18;9.10;;;8.20;;
7162;SDS011;3623;47.098;15.446;2022-10-29T08:57:48;9.77;;;8.87;;
7162;SDS011;3623;47.098;15.446;2022-10-29T09:00:20;9.27;;;8.23;;
7162;SDS011;3623;47.098;15.446;2022-10-29T09:02:52;10.57;;;9.23;;
7162;SDS011;3623;47.098;15.446;2022-10-29T09:05:25;9.07;;;8.13;;
7162;SDS011;3623;47.098;15.446;2022-10-29T09:07:59;11.27;;;10.17;;
7162;SDS011;3623;47.098;15.446;2022-10-29T09:10:39;13.63;;;10.33;;
7162;SDS011;3623;47.098;15.446;2022-10-29T09:13:19;11.50;;;9.00;;
7162;SDS011;3623;47.098;15.446;2022-10-29T09:16:03;9.60;;;8.00;;
7162;SDS011;3623;47.098;15.446;2022-10-29T09:18:41;9.23;;;8.30;;
7162;SDS011;3623;47.098;15.446;2022-10-29T09:21:20;9.87;;;8.97;;
7162;SDS011;3623;47.098;15.446;2022-10-29T09:23:56;9.83;;;7.07;;
7162;SDS011;3623;47.098;15.446;2022-10-29T09:26:35;7.47;;;6.50;;
7162;SDS011;3623;47.098;15.446;2022-10-29T09:29:23;9.87;;;7.00;;
7162;SDS011;3623;47.098;15.446;2022-10-29T09:32:00;9.77;;;7.20;;
7162;SDS011;3623;47.098;15.446;2022-10-29T09:34:32;12.87;;;7.00;;
7162;SDS011;3623;47.098;15.446;2022-10-29T09:37:08;10.70;;;6.77;;
7162;SDS011;3623;47.098;15.446;2022-10-29T09:39:41;7.77;;;7.00;;
7162;SDS011;3623;47.098;15.446;2022-10-29T09:42:11;6.00;;;5.50;;
7162;SDS011;3623;47.098;15.446;2022-10-29T09:44:42;8.97;;;8.07;;
7162;SDS011;3623;47.098;15.446;2022-10-29T09:47:16;10.47;;;7.70;;
7162;SDS011;3623;47.098;15.446;2022-10-29T09:49:53;8.93;;;8.03;;
7162;SDS011;3623;47.098;15.446;2022-10-29T09:52:31;9.40;;;8.50;;
7162;SDS011;3623;47.098;15.446;2022-10-29T09:55:00;10.33;;;9.33;;
7162;SDS011;3623;47.098;15.446;2022-10-29T09:57:30;10.10;;;7.87;;
7162;SDS011;3623;47.098;15.446;2022-10-29T10:00:02;11.40;;;10.13;;
7162;SDS011;3623;47.098;15.446;2022-10-29T10:02:32;10.57;;;9.60;;
7162;SDS011;3623;47.098;15.446;2022-10-29T10:05:03;9.60;;;8.70;;
7162;SDS011;3623;47.098;15.446;2022-10-29T10:07:40;11.53;;;10.50;;
7162;SDS011;3623;47.098;15.446;2022-10-29T10:10:18;11.47;;;10.37;;
7162;SDS011;3623;47.098;15.446;2022-10-29T10:12:47;10.93;;;9.70;;
7162;SDS011;3623;47.098;15.446;2022-10-29T10:15:17;11.50;;;10.40;;
7162;SDS011;3623;47.098;15.446;2022-10-29T10:17:54;11.00;;;9.90;;
7162;SDS011;3623;47.098;15.446;2022-10-29T10:20:27;11.93;;;10.70;;
7162;SDS011;3623;47.098;15.446;2022-10-29T10:23:16;9.40;;;8.50;;
7162;SDS011;3623;47.098;15.446;2022-10-29T10:25:47;10.20;;;8.40;;
7162;SDS011;3623;47.098;15.446;2022-10-29T10:28:15;9.17;;;8.27;;
7162;SDS011;3623;47.098;15.446;2022-10-29T10:30:43;10.00;;;7.67;;
7162;SDS011;3623;47.098;15.446;2022-10-29T10:33:17;8.77;;;7.97;;
7162;SDS011;3623;47.098;15.446;2022-10-29T10:35:51;7.77;;;7.07;;
7162;SDS011;3623;47.098;15.446;2022-10-29T10:38:20;6.80;;;6.23;;
7162;SDS011;3623;47.098;15.446;2022-10-29T10:40:54;11.13;;;7.37;;
7162;SDS011;3623;47.098;15.446;2022-10-29T10:43:24;6.20;;;5.80;;
7162;SDS011;3623;47.098;15.446;2022-10-29T10:45:52;10.50;;;7.10;;
7162;SDS011;3623;47.098;15.446;2022-10-29T10:48:22;6.43;;;5.83;;
7162;SDS011;3623;47.098;15.446;2022-10-29T10:50:52;10.53;;;6.10;;
7162;SDS011;3623;47.098;15.446;2022-10-29T10:53:43;6.60;;;6.00;;
7162;SDS011;3623;47.098;15.446;2022-10-29T10:56:17;8.00;;;6.77;;
7162;SDS011;3623;47.098;15.446;2022-10-29T10:58:46;9.30;;;6.63;;
7162;SDS011;3623;47.098;15.446;2022-10-29T11:01:19;6.93;;;6.30;;
7162;SDS011;3623;47.098;15.446;2022-10-29T11:03:54;6.63;;;5.93;;
7162;SDS011;3623;47.098;15.446;2022-10-29T11:06:27;7.63;;;6.93;;
7162;SDS011;3623;47.098;15.446;2022-10-29T11:09:04;7.40;;;6.67;;
7162;SDS011;3623;47.098;15.446;2022-10-29T11:11:42;6.10;;;5.50;;
7162;SDS011;3623;47.098;15.446;2022-10-29T11:14:11;7.70;;;5.53;;
7162;SDS011;3623;47.098;15.446;2022-10-29T11:16:44;6.67;;;6.17;;
7162;SDS011;3623;47.098;15.446;2022-10-29T11:19:18;7.13;;;5.30;;
7162;SDS011;3623;47.098;15.446;2022-10-29T11:22:00;6.00;;;5.17;;
7162;SDS011;3623;47.098;15.446;2022-10-29T11:24:34;5.93;;;5.43;;
7162;SDS011;3623;47.098;15.446;2022-10-29T11:27:12;7.07;;;5.33;;
7162;SDS011;3623;47.098;15.446;2022-10-29T11:29:49;5.30;;;4.80;;
7162;SDS011;3623;47.098;15.446;2022-10-29T11:32:24;5.37;;;4.53;;
7162;SDS011;3623;47.098;15.446;2022-10-29T11:35:01;5.70;;;5.23;;
7162;SDS011;3623;47.098;15.446;2022-10-29T11:37:32;10.97;;;4.90;;
7162;SDS011;3623;47.098;15.446;2022-10-29T11:40:11;4.87;;;4.40;;
7162;SDS011;3623;47.098;15.446;2022-10-29T11:42:39;10.40;;;4.73;;
7162;SDS011;3623;47.098;15.446;2022-10-29T11:45:09;9.80;;;4.97;;
7162;SDS011;3623;47.098;15.446;2022-10-29T11:47:46;5.90;;;4.53;;
7162;SDS011;3623;47.098;15.446;2022-10-29T11:50:32;4.57;;;4.27;;
7162;SDS011;3623;47.098;15.446;2022-10-29T11:53:08;7.97;;;4.20;;
7162;SDS011;3623;47.098;15.446;2022-10-29T11:55:50;6.23;;;4.30;;
7162;SDS011;3623;47.098;15.446;2022-10-29T11:58:28;5.10;;;4.13;;
7162;SDS011;3623;47.098;15.446;2022-10-29T12:01:00;6.13;;;4.27;;
7162;SDS011;3623;47.098;15.446;2022-10-29T12:03:40;11.73;;;4.83;;
7162;SDS011;3623;47.098;15.446;2022-10-29T12:06:22;9.03;;;5.27;;
7162;SDS011;3623;47.098;15.446;2022-10-29T12:08:57;5.40;;;5.00;;
7162;SDS011;3623;47.098;15.446;2022-10-29T12:11:40;6.03;;;4.20;;
7162;SDS011;3623;47.098;15.446;2022-10-29T12:14:17;5.50;;;5.10;;
7162;SDS011;3623;47.098;15.446;2022-10-29T12:16:51;4.90;;;4.10;;
7162;SDS011;3623;47.098;15.446;2022-10-29T12:19:29;5.23;;;4.07;;
7162;SDS011;3623;47.098;15.446;2022-10-29T12:22:07;5.00;;;4.10;;
7162;SDS011;3623;47.098;15.446;2022-10-29T12:24:46;4.83;;;4.40;;
7162;SDS011;3623;47.098;15.446;2022-10-29T12:27:23;5.47;;;4.60;;
7162;SDS011;3623;47.098;15.446;2022-10-29T12:29:58;6.17;;;4.07;;
7162;SDS011;3623;47.098;15.446;2022-10-29T12:32:30;4.53;;;4.13;;
7162;SDS011;3623;47.098;15.446;2022-10-29T12:35:03;5.93;;;4.50;;
7162;SDS011;3623;47.098;15.446;2022-10-29T12:37:39;4.97;;;4.30;;
7162;SDS011;3623;47.098;15.446;2022-10-29T12:40:15;5.60;;;4.30;;
7162;SDS011;3623;47.098;15.446;2022-10-29T12:42:47;5.97;;;4.77;;
7162;SDS011;3623;47.098;15.446;2022-10-29T12:45:28;5.80;;;4.53;;
7162;SDS011;3623;47.098;15.446;2022-10-29T12:48:02;5.03;;;4.00;;
7162;SDS011;3623;47.098;15.446;2022-10-29T12:50:37;7.20;;;3.70;;
7162;SDS011;3623;47.098;15.446;2022-10-29T12:53:15;5.83;;;4.37;;
7162;SDS011;3623;47.098;15.446;2022-10-29T12:55:51;6.43;;;5.30;;
7162;SDS011;3623;47.098;15.446;2022-10-29T13:04:25;6.00;;;4.50;;
7162;SDS011;3623;47.098;15.446;2022-10-29T13:07:03;8.00;;;3.93;;
7162;SDS011;3623;47.098;15.446;2022-10-29T13:09:47;4.60;;;4.10;;
7162;SDS011;3623;47.098;15.446;2022-10-29T13:12:51;7.87;;;4.50;;
7162;SDS011;3623;47.098;15.446;2022-10-29T13:15:26;5.70;;;3.60;;
7162;SDS011;3623;47.098;15.446;2022-10-29T13:17:56;4.73;;;4.33;;
7162;SDS011;3623;47.098;15.446;2022-10-29T13:20:32;5.87;;;4.90;;
7162;SDS011;3623;47.098;15.446;2022-10-29T13:23:02;7.70;;;5.10;;
7162;SDS011;3623;47.098;15.446;2022-10-29T13:25:56;6.83;;;4.37;;
7162;SDS011;3623;47.098;15.446;2022-10-29T13:43:09;7.30;;;4.03;;
7162;SDS011;3623;47.098;15.446;2022-10-29T13:45:41;7.90;;;5.20;;
7162;SDS011;3623;47.098;15.446;2022-10-29T13:48:15;5.83;;;5.30;;
7162;SDS011;3623;47.098;15.446;2022-10-29T13:50:49;6.60;;;4.37;;
7162;SDS011;3623;47.098;15.446;2022-10-29T13:53:24;9.70;;;5.00;;
7162;SDS011;3623;47.098;15.446;2022-10-29T13:55:59;12.97;;;4.70;;
7162;SDS011;3623;47.098;15.446;2022-10-29T13:58:27;4.10;;;3.77;;
7162;SDS011;3623;47.098;15.446;2022-10-29T14:00:57;11.97;;;4.93;;
7162;SDS011;3623;47.098;15.446;2022-10-29T14:03:30;5.70;;;4.70;;
7162;SDS011;3623;47.098;15.446;2022-10-29T14:06:04;4.73;;;4.33;;
7162;SDS011;3623;47.098;15.446;2022-10-29T14:08:36;7.47;;;4.37;;
7162;SDS011;3623;47.098;15.446;2022-10-29T14:11:08;4.90;;;4.60;;
7162;SDS011;3623;47.098;15.446;2022-10-29T14:13:41;5.63;;;5.00;;
7162;SDS011;3623;47.098;15.446;2022-10-29T14:16:11;6.33;;;4.13;;
7162;SDS011;3623;47.098;15.446;2022-10-29T14:18:41;7.83;;;4.80;;
7162;SDS011;3623;47.098;15.446;2022-10-29T14:21:13;8.57;;;5.03;;
7162;SDS011;3623;47.098;15.446;2022-10-29T14:23:53;7.13;;;4.37;;
7162;SDS011;3623;47.098;15.446;2022-10-29T14:26:24;7.83;;;4.77;;
7162;SDS011;3623;47.098;15.446;2022-10-29T14:28:53;8.33;;;4.80;;
7162;SDS011;3623;47.098;15.446;2022-10-29T14:31:20;7.17;;;4.57;;
7162;SDS011;3623;47.098;15.446;2022-10-29T14:33:53;6.53;;;4.90;;
7162;SDS011;3623;47.098;15.446;2022-10-29T14:36:23;9.63;;;4.80;;
7162;SDS011;3623;47.098;15.446;2022-10-29T14:38:54;7.50;;;5.13;;
7162;SDS011;3623;47.098;15.446;2022-10-29T14:41:24;5.90;;;4.43;;
7162;SDS011;3623;47.098;15.446;2022-10-29T14:43:56;4.63;;;4.23;;
7162;SDS011;3623;47.098;15.446;2022-10-29T14:46:29;9.67;;;5.90;;
7162;SDS011;3623;47.098;15.446;2022-10-29T14:49:10;8.47;;;5.20;;
7162;SDS011;3623;47.098;15.446;2022-10-29T14:51:42;5.43;;;4.90;;
7162;SDS011;3623;47.098;15.446;2022-10-29T14:54:18;5.40;;;4.90;;
7162;SDS011;3623;47.098;15.446;2022-10-29T14:56:49;8.17;;;5.50;;
7162;SDS011;3623;47.098;15.446;2022-10-29T14:59:20;7.97;;;5.10;;
7162;SDS011;3623;47.098;15.446;2022-10-29T15:01:50;10.13;;;4.63;;
7162;SDS011;3623;47.098;15.446;2022-10-29T15:04:21;5.47;;;4.40;;
7162;SDS011;3623;47.098;15.446;2022-10-29T15:06:51;6.10;;;5.07;;
7162;SDS011;3623;47.098;15.446;2022-10-29T15:09:21;5.20;;;4.70;;
7162;SDS011;3623;47.098;15.446;2022-10-29T15:11:59;9.77;;;5.67;;
7162;SDS011;3623;47.098;15.446;2022-10-29T15:14:34;7.00;;;5.13;;
7162;SDS011;3623;47.098;15.446;2022-10-29T15:17:09;7.27;;;5.50;;
7162;SDS011;3623;47.098;15.446;2022-10-29T15:19:42;5.30;;;4.80;;
7162;SDS011;3623;47.098;15.446;2022-10-29T15:22:15;5.33;;;4.10;;
7162;SDS011;3623;47.098;15.446;2022-10-29T15:24:45;6.07;;;4.63;;
7162;SDS011;3623;47.098;15.446;2022-10-29T15:27:15;6.67;;;4.33;;
7162;SDS011;3623;47.098;15.446;2022-10-29T15:29:44;6.67;;;4.40;;
7162;SDS011;3623;47.098;15.446;2022-10-29T15:32:14;5.80;;;5.03;;
7162;SDS011;3623;47.098;15.446;2022-10-29T15:34:46;6.23;;;4.70;;
7162;SDS011;3623;47.098;15.446;2022-10-29T15:37:25;9.07;;;5.00;;
7162;SDS011;3623;47.098;15.446;2022-10-29T15:40:06;6.87;;;5.10;;
7162;SDS011;3623;47.098;15.446;2022-10-29T15:42:37;4.47;;;4.13;;
7162;SDS011;3623;47.098;15.446;2022-10-29T15:45:12;7.90;;;5.30;;
7162;SDS011;3623;47.098;15.446;2022-10-29T15:47:44;5.40;;;5.00;;
7162;SDS011;3623;47.098;15.446;2022-10-29T15:50:15;8.00;;;5.40;;